Terminal Aerodrome Forecast
Issued by NWS

Home | Current Version | Previous Version | Graphics & Text | Print | Product List | Glossary On
Versions: 1 2 3 4 5 6 7 8 9 10 11 12 13 14 15 16 17 18 19 20 21 22 23 24 25 26 27 28 29 30
389
FTUS43 KLOT 201522 AAB
TAFMDW
TAF AMD
KMDW 201522Z 2015/2118 21015G22KT 6SM -SHRA BR SCT009 SCT015 OVC040
      TEMPO 2015/2018 2SM SHRA BR BKN015
     FM201800 21015G22KT 3SM SHRA BR SCT005 OVC008
      TEMPO 2018/2022 1SM TSRA BR OVC005CB
     FM202200 27011KT 2SM -SHRA BR OVC004
     FM210100 31012KT 6SM -SHRA BR OVC008
     FM210600 32012G17KT P6SM SCT010 BKN035=

USA.gov is the U.S. government's official web portal to all federal, state and local government web resources and services.